Terminal Aerodrome Forecast
Issued by NWS Binghamton, NY

Home | Current Version | Previous Version | Text Only | Print | Product List | Glossary On
Versions: 1 2 3 4 5 6 7 8 9 10 11 12 13 14 15 16 17 18 19 20 21 22
000
FTUS41 KBGM 020800 AAA
TAFAVP
TAF AMD
KAVP 020833Z 0209/0306 VRB03KT P6SM SCT025 BKN045
     FM021500 20006KT P6SM BKN040
      TEMPO 0217/0221 5SM -SHRA OVC025
     FM030000 VRB03KT P6SM OVC025=

USA.gov is the U.S. government's official web portal to all federal, state and local government web resources and services.